Flight Track Log - Related Links

Times and Time Zones

All times are in EDT time to prevent confusion due to time zone crossing. See the KAP927 flight status page for this flight to view local times or setup timezone preferences in your user account.

Time Position Orientation Groundspeed Altitude Reporting Facility
EDT Latitude Longitude Course Direction KTS MPH feet Rate Location/Type
Fri 07:13:08 AM 44.4839 -75.2306 149° Southeast 150 173 4,400  Level Boston Center
Fri 07:14:08 AM 44.4533 -75.2031 147° Southeast 135 155 4,900 500 Climbing Boston Center
Fri 07:15:08 AM 44.4225 -75.1783 150° Southeast 129 148 5,400 550 Climbing Boston Center
Fri 07:16:08 AM 44.3919 -75.1536 150° Southeast 129 148 6,000 550 Climbing Boston Center
Fri 07:17:08 AM 44.3614 -75.1203 142° Southeast 135 155 6,500 500 Climbing Boston Center
Fri 07:18:00 AM 44.4772 -75.2831 149° Southeast  Level Estimated
Fri 07:18:08 AM 44.3264 -75.0983 156° South 140 161 7,000  Level Boston Center
Fri 07:19:08 AM 44.2917 -75.0678 148° Southeast 140 161 7,500 300 Climbing Boston Center
Fri 07:20:08 AM 44.2550 -75.0372 149° Southeast 140 161 7,600 100 Climbing Boston Center
Fri 07:21:08 AM 44.2161 -75.0067 151° Southeast 151 174 7,700 -50 Climbing Boston Center
Fri 07:22:08 AM 44.1772 -74.9731 148° Southeast 157 181 7,500 -100 Descending Boston Center
Fri 07:23:08 AM 44.1383 -74.9394 148° Southeast 162 186 7,500 50 Level Boston Center
Fri 07:24:08 AM 44.0933 -74.9031 150° Southeast 162 186 7,600 50 Climbing Boston Center
Fri 07:25:08 AM 44.0522 -74.8667 148° Southeast 162 186 7,600  Level Boston Center
Fri 07:26:08 AM 44.0133 -74.8333 148° Southeast 162 186 7,600  Level Boston Center
Fri 07:27:08 AM 43.9725 -74.8000 150° Southeast 167 192 7,600  Level Boston Center
Fri 07:28:08 AM 43.9397 -74.7728 149° Southeast 167 192 7,600 -50 Level Boston Center
Fri 07:29:08 AM 43.8906 -74.7333 150° Southeast 167 192 7,500  Descending Boston Center
Fri 07:30:08 AM 43.8514 -74.7003 149° Southeast 167 192 7,600 50 Climbing Boston Center
Fri 07:31:08 AM 43.8083 -74.6669 151° Southeast 167 192 7,600 -50 Level Boston Center
Fri 07:32:08 AM 43.7756 -74.6397 149° Southeast 167 192 7,500 -50 Descending Boston Center
Fri 07:33:08 AM 43.7283 -74.6006 149° Southeast 167 192 7,500  Level Boston Center
Fri 07:34:08 AM 43.6894 -74.5678 149° Southeast 167 192 7,500 50 Level Boston Center
Fri 07:35:08 AM 43.6503 -74.5347 149° Southeast 167 192 7,600 50 Climbing Boston Center
Fri 07:36:08 AM 43.6094 -74.5017 150° Southeast 167 192 7,600 -50 Level Boston Center
Fri 07:37:08 AM 43.5703 -74.4689 149° Southeast 167 192 7,500 -50 Descending Boston Center
Fri 07:38:08 AM 43.5314 -74.4361 149° Southeast 167 192 7,500  Level Boston Center
Fri 07:39:08 AM 43.4922 -74.4061 151° Southeast 167 192 7,500  Level Boston Center
Fri 07:39:37 AM 43.4758 -74.3942 152° Southeast 164 189 7,500 -100 Level Boston Center
Fri 07:40:08 AM 43.4533 -74.3706 143° Southeast 167 192 7,400  Descending Boston Center
Fri 07:40:31 AM 43.4389 -74.3617 156° South 168 193 7,500 -100 Climbing Boston Center
Fri 07:41:08 AM 43.4142 -74.3381 145° Southeast 167 192 7,300 98 Descending Boston Center
Fri 07:41:32 AM 43.3978 -74.3261 152° Southeast 165 190 7,600 200 Climbing Boston Center
Fri 07:42:08 AM 43.3750 -74.3083 150° Southeast 161 185 7,500 -179 Descending Boston Center
Fri 07:42:39 AM 43.3544 -74.2933 152° Southeast 160 184 7,400  Descending Boston Center
Fri 07:43:08 AM 43.3400 -74.2786 143° Southeast 161 185 7,500 -222 Climbing Boston Center
Fri 07:43:33 AM 43.3217 -74.2667 155° Southeast 162 186 7,200 -500 Descending Boston Center
Fri 07:44:08 AM 43.2947 -74.2431 147° Southeast 171 197 7,000 -393 Descending Boston Center
Fri 07:44:34 AM 43.2783 -74.2311 152° Southeast 176 203 6,800 -400 Descending Boston Center
Fri 07:45:08 AM 43.2578 -74.2106 144° Southeast 176 203 6,600 -500 Descending Boston Center
Fri 07:45:34 AM 43.2350 -74.1956 154° Southeast 180 207 6,300 -500 Descending Boston Center
Fri 07:46:08 AM 43.2106 -74.1722 145° Southeast 181 208 6,100 -448 Descending Boston Center
Fri 07:46:41 AM 43.1856 -74.1572 156° South 179 206 5,800 -400 Descending Boston Center
Fri 07:47:08 AM 43.1733 -74.1425 139° Southeast 181 208 5,700 -393 Descending Boston Center
Fri 07:47:42 AM 43.1444 -74.1219 153° Southeast 175 201 5,400 -300 Descending Boston Center
Fri 07:48:08 AM 43.1239 -74.1069 152° Southeast 181 208 5,400 -222 Level Boston Center
Fri 07:48:36 AM 43.1053 -74.1008 167° South 169 194 5,200 -300 Descending Boston Center
Fri 07:49:08 AM 43.0889 -74.0833 142° Southeast 174 200 5,100 -269 Descending Boston Center
Fri 07:49:43 AM 43.0619 -74.0683 158° South 165 190 4,900 -300 Descending Boston Center
Fri 07:50:08 AM 43.0433 -74.0508 146° Southeast 174 200 4,800 -197 Descending Boston Center
Fri 07:50:44 AM 43.0228 -74.0306 144° Southeast 159 183 4,700 -200 Descending Boston Center
Fri 07:51:08 AM 43.0125 -74.0189 140° Southeast 167 192 4,600 -308 Descending Boston Center
Fri 07:52:02 AM 42.9733 -73.9867 149° Southeast 159 183 4,300 -330 Descending Boston Center
Fri 07:52:57 AM 42.9425 -73.9575 145° Southeast 162 186 4,000 -414 Descending Boston Center
Fri 07:53:58 AM 42.9033 -73.9225 147° Southeast 157 181 3,500 -446 Descending Boston Center
Fri 07:54:58 AM 42.8706 -73.8878 142° Southeast 157 181 3,100 -545 Descending Boston Center
Fri 07:55:59 AM 42.8397 -73.8531 140° Southeast 142 163 2,400 -738 Descending Boston Center
Fri 07:57:00 AM 42.8089 -73.8239 145° Southeast 124 143 1,600 -835 Descending Boston Center
Fri 07:57:54 AM 42.7778 -73.8092 161° South 128 147 800 -889 Descending Boston Center
Fri 07:59:00 AM 42.7491 -73.8020 160° South  Level Estimated
Fri 08:06:00 AM 42.7491 -73.8020 160° South  Level Estimated
Fri 08:07:00 AM 42.7491 -73.8020 160° South  Level Estimated
Fri 08:08:00 AM 42.7491 -73.8020 160° South  Level Estimated
Fri 08:09:00 AM 42.7491 -73.8020 160° South  Level Estimated

Login

Don't have an account? Register now (free) for customized features, flight alerts, and more!